sensor_id;sensor_type;location;lat;lon;timestamp;P1;durP1;ratioP1;P2;durP2;ratioP2
69172;SDS011;56280;49.662;8.408;2023-09-18T00:00:36;12.50;;;6.33;;
69172;SDS011;56280;49.662;8.408;2023-09-18T00:03:02;15.20;;;7.03;;
69172;SDS011;56280;49.662;8.408;2023-09-18T00:05:28;14.43;;;6.70;;
69172;SDS011;56280;49.662;8.408;2023-09-18T00:07:53;13.17;;;6.47;;
69172;SDS011;56280;49.662;8.408;2023-09-18T00:10:19;10.80;;;6.10;;
69172;SDS011;56280;49.662;8.408;2023-09-18T00:12:44;11.97;;;5.73;;
69172;SDS011;56280;49.662;8.408;2023-09-18T00:15:09;11.57;;;5.90;;
69172;SDS011;56280;49.662;8.408;2023-09-18T00:17:35;10.10;;;5.60;;
69172;SDS011;56280;49.662;8.408;2023-09-18T00:20:01;12.65;;;6.43;;
69172;SDS011;56280;49.662;8.408;2023-09-18T00:22:28;13.20;;;6.43;;
69172;SDS011;56280;49.662;8.408;2023-09-18T00:24:53;10.63;;;5.93;;
69172;SDS011;56280;49.662;8.408;2023-09-18T00:27:19;12.27;;;6.47;;
69172;SDS011;56280;49.662;8.408;2023-09-18T00:29:44;11.57;;;6.20;;
69172;SDS011;56280;49.662;8.408;2023-09-18T00:32:09;14.00;;;6.03;;
69172;SDS011;56280;49.662;8.408;2023-09-18T00:34:34;12.90;;;5.77;;
69172;SDS011;56280;49.662;8.408;2023-09-18T00:37:00;13.80;;;6.57;;
69172;SDS011;56280;49.662;8.408;2023-09-18T00:39:26;14.43;;;6.40;;
69172;SDS011;56280;49.662;8.408;2023-09-18T00:41:51;13.63;;;6.63;;
69172;SDS011;56280;49.662;8.408;2023-09-18T00:44:19;12.75;;;6.65;;
69172;SDS011;56280;49.662;8.408;2023-09-18T00:46:45;12.23;;;6.38;;
69172;SDS011;56280;49.662;8.408;2023-09-18T00:49:11;14.35;;;6.57;;
69172;SDS011;56280;49.662;8.408;2023-09-18T00:51:37;11.88;;;6.68;;
69172;SDS011;56280;49.662;8.408;2023-09-18T00:54:03;12.20;;;6.20;;
69172;SDS011;56280;49.662;8.408;2023-09-18T00:56:28;11.73;;;6.20;;
69172;SDS011;56280;49.662;8.408;2023-09-18T00:58:54;12.13;;;6.03;;
69172;SDS011;56280;49.662;8.408;2023-09-18T01:01:19;12.93;;;6.57;;
69172;SDS011;56280;49.662;8.408;2023-09-18T01:03:50;11.50;;;6.03;;
69172;SDS011;56280;49.662;8.408;2023-09-18T01:06:18;11.55;;;6.90;;
69172;SDS011;56280;49.662;8.408;2023-09-18T01:08:44;12.48;;;6.07;;
69172;SDS011;56280;49.662;8.408;2023-09-18T01:11:10;13.23;;;6.43;;
69172;SDS011;56280;49.662;8.408;2023-09-18T01:13:45;11.63;;;5.90;;
69172;SDS011;56280;49.662;8.408;2023-09-18T01:16:44;11.98;;;5.55;;
69172;SDS011;56280;49.662;8.408;2023-09-18T01:19:36;10.85;;;5.40;;
69172;SDS011;56280;49.662;8.408;2023-09-18T01:22:06;11.88;;;5.55;;
69172;SDS011;56280;49.662;8.408;2023-09-18T01:24:33;11.13;;;5.15;;
69172;SDS011;56280;49.662;8.408;2023-09-18T01:26:58;12.07;;;5.70;;
69172;SDS011;56280;49.662;8.408;2023-09-18T01:29:24;11.40;;;5.20;;
69172;SDS011;56280;49.662;8.408;2023-09-18T01:31:49;10.90;;;5.27;;
69172;SDS011;56280;49.662;8.408;2023-09-18T01:34:16;11.05;;;5.47;;
69172;SDS011;56280;49.662;8.408;2023-09-18T01:36:46;10.10;;;5.10;;
69172;SDS011;56280;49.662;8.408;2023-09-18T01:39:12;12.23;;;5.60;;
69172;SDS011;56280;49.662;8.408;2023-09-18T01:41:38;12.93;;;5.10;;
69172;SDS011;56280;49.662;8.408;2023-09-18T01:44:05;11.60;;;5.63;;
69172;SDS011;56280;49.662;8.408;2023-09-18T01:46:32;11.07;;;5.32;;
69172;SDS011;56280;49.662;8.408;2023-09-18T01:49:01;9.32;;;4.60;;
69172;SDS011;56280;49.662;8.408;2023-09-18T01:51:26;8.40;;;4.33;;
69172;SDS011;56280;49.662;8.408;2023-09-18T01:53:52;9.03;;;3.93;;
69172;SDS011;56280;49.662;8.408;2023-09-18T01:56:19;12.18;;;5.00;;
69172;SDS011;56280;49.662;8.408;2023-09-18T01:58:44;11.60;;;4.93;;
69172;SDS011;56280;49.662;8.408;2023-09-18T02:01:10;10.85;;;4.90;;
69172;SDS011;56280;49.662;8.408;2023-09-18T02:03:35;8.40;;;4.50;;
69172;SDS011;56280;49.662;8.408;2023-09-18T02:06:00;10.30;;;4.30;;
69172;SDS011;56280;49.662;8.408;2023-09-18T02:08:26;8.47;;;3.93;;
69172;SDS011;56280;49.662;8.408;2023-09-18T02:10:51;7.73;;;4.03;;
69172;SDS011;56280;49.662;8.408;2023-09-18T02:13:17;8.55;;;4.40;;
69172;SDS011;56280;49.662;8.408;2023-09-18T02:15:43;8.37;;;4.40;;
69172;SDS011;56280;49.662;8.408;2023-09-18T02:18:09;9.55;;;4.72;;
69172;SDS011;56280;49.662;8.408;2023-09-18T02:20:39;10.13;;;4.80;;
69172;SDS011;56280;49.662;8.408;2023-09-18T02:23:06;10.90;;;4.30;;
69172;SDS011;56280;49.662;8.408;2023-09-18T02:25:31;10.17;;;4.97;;
69172;SDS011;56280;49.662;8.408;2023-09-18T02:27:56;8.57;;;4.50;;
69172;SDS011;56280;49.662;8.408;2023-09-18T02:30:22;9.90;;;4.90;;
69172;SDS011;56280;49.662;8.408;2023-09-18T02:32:47;9.33;;;4.40;;
69172;SDS011;56280;49.662;8.408;2023-09-18T02:35:12;9.60;;;4.43;;
69172;SDS011;56280;49.662;8.408;2023-09-18T02:37:38;9.13;;;4.60;;
69172;SDS011;56280;49.662;8.408;2023-09-18T02:40:03;8.80;;;4.60;;
69172;SDS011;56280;49.662;8.408;2023-09-18T02:42:30;9.10;;;4.53;;
69172;SDS011;56280;49.662;8.408;2023-09-18T02:44:55;9.40;;;4.80;;
69172;SDS011;56280;49.662;8.408;2023-09-18T02:47:20;8.27;;;4.33;;
69172;SDS011;56280;49.662;8.408;2023-09-18T02:49:46;9.60;;;4.47;;
69172;SDS011;56280;49.662;8.408;2023-09-18T02:52:11;9.37;;;4.50;;
69172;SDS011;56280;49.662;8.408;2023-09-18T02:54:37;9.33;;;4.43;;
69172;SDS011;56280;49.662;8.408;2023-09-18T02:57:02;9.10;;;5.00;;
69172;SDS011;56280;49.662;8.408;2023-09-18T02:59:27;8.97;;;4.60;;
69172;SDS011;56280;49.662;8.408;2023-09-18T03:01:53;9.97;;;4.77;;
69172;SDS011;56280;49.662;8.408;2023-09-18T03:04:18;9.20;;;4.80;;
69172;SDS011;56280;49.662;8.408;2023-09-18T03:06:46;10.77;;;4.90;;
69172;SDS011;56280;49.662;8.408;2023-09-18T03:09:11;10.17;;;5.13;;
69172;SDS011;56280;49.662;8.408;2023-09-18T03:11:37;9.60;;;5.03;;
69172;SDS011;56280;49.662;8.408;2023-09-18T03:14:02;8.37;;;5.13;;
69172;SDS011;56280;49.662;8.408;2023-09-18T03:16:27;11.60;;;5.53;;
69172;SDS011;56280;49.662;8.408;2023-09-18T03:18:52;9.00;;;5.20;;
69172;SDS011;56280;49.662;8.408;2023-09-18T03:21:18;10.67;;;5.13;;
69172;SDS011;56280;49.662;8.408;2023-09-18T03:23:43;9.80;;;5.00;;
69172;SDS011;56280;49.662;8.408;2023-09-18T03:26:08;9.20;;;5.10;;
69172;SDS011;56280;49.662;8.408;2023-09-18T03:28:34;9.43;;;4.93;;
69172;SDS011;56280;49.662;8.408;2023-09-18T03:30:59;8.70;;;4.53;;
69172;SDS011;56280;49.662;8.408;2023-09-18T03:33:24;8.20;;;4.83;;
69172;SDS011;56280;49.662;8.408;2023-09-18T03:35:50;8.50;;;5.17;;
69172;SDS011;56280;49.662;8.408;2023-09-18T03:38:19;9.25;;;5.35;;
69172;SDS011;56280;49.662;8.408;2023-09-18T03:40:45;9.40;;;5.17;;
69172;SDS011;56280;49.662;8.408;2023-09-18T03:43:11;11.30;;;4.90;;
69172;SDS011;56280;49.662;8.408;2023-09-18T03:45:39;8.40;;;5.13;;
69172;SDS011;56280;49.662;8.408;2023-09-18T03:48:08;8.50;;;4.90;;
69172;SDS011;56280;49.662;8.408;2023-09-18T03:50:33;10.50;;;4.27;;
69172;SDS011;56280;49.662;8.408;2023-09-18T03:52:58;8.50;;;4.82;;
69172;SDS011;56280;49.662;8.408;2023-09-18T03:55:24;8.32;;;4.55;;
69172;SDS011;56280;49.662;8.408;2023-09-18T03:57:50;6.93;;;4.30;;
69172;SDS011;56280;49.662;8.408;2023-09-18T04:00:17;7.60;;;4.28;;
69172;SDS011;56280;49.662;8.408;2023-09-18T04:02:42;8.35;;;4.50;;
69172;SDS011;56280;49.662;8.408;2023-09-18T04:05:07;8.47;;;4.60;;
69172;SDS011;56280;49.662;8.408;2023-09-18T04:07:34;7.40;;;4.38;;
69172;SDS011;56280;49.662;8.408;2023-09-18T04:09:59;9.53;;;4.50;;
69172;SDS011;56280;49.662;8.408;2023-09-18T04:12:25;8.20;;;4.27;;
69172;SDS011;56280;49.662;8.408;2023-09-18T04:14:50;8.00;;;4.37;;
69172;SDS011;56280;49.662;8.408;2023-09-18T04:17:16;9.17;;;4.80;;
69172;SDS011;56280;49.662;8.408;2023-09-18T04:19:41;9.63;;;4.37;;
69172;SDS011;56280;49.662;8.408;2023-09-18T04:22:08;8.77;;;4.15;;
69172;SDS011;56280;49.662;8.408;2023-09-18T04:24:33;8.70;;;4.07;;
69172;SDS011;56280;49.662;8.408;2023-09-18T04:26:59;11.80;;;4.07;;
69172;SDS011;56280;49.662;8.408;2023-09-18T04:29:24;8.63;;;3.80;;
69172;SDS011;56280;49.662;8.408;2023-09-18T04:31:49;11.63;;;4.10;;
69172;SDS011;56280;49.662;8.408;2023-09-18T04:34:15;10.00;;;3.80;;
69172;SDS011;56280;49.662;8.408;2023-09-18T04:36:40;12.23;;;4.17;;
69172;SDS011;56280;49.662;8.408;2023-09-18T04:39:06;11.88;;;3.65;;
69172;SDS011;56280;49.662;8.408;2023-09-18T04:41:32;12.83;;;3.30;;
69172;SDS011;56280;49.662;8.408;2023-09-18T04:43:57;9.10;;;3.17;;
69172;SDS011;56280;49.662;8.408;2023-09-18T04:46:23;11.10;;;3.40;;
69172;SDS011;56280;49.662;8.408;2023-09-18T04:48:51;12.18;;;3.92;;
69172;SDS011;56280;49.662;8.408;2023-09-18T04:51:16;11.30;;;3.37;;
69172;SDS011;56280;49.662;8.408;2023-09-18T04:53:42;12.03;;;3.30;;
69172;SDS011;56280;49.662;8.408;2023-09-18T04:56:07;15.77;;;3.40;;
69172;SDS011;56280;49.662;8.408;2023-09-18T04:58:38;10.43;;;3.50;;
69172;SDS011;56280;49.662;8.408;2023-09-18T05:01:04;11.02;;;3.30;;
69172;SDS011;56280;49.662;8.408;2023-09-18T05:03:33;13.75;;;3.58;;
69172;SDS011;56280;49.662;8.408;2023-09-18T05:05:59;12.23;;;3.78;;
69172;SDS011;56280;49.662;8.408;2023-09-18T05:08:24;10.57;;;3.30;;
69172;SDS011;56280;49.662;8.408;2023-09-18T05:10:50;14.37;;;3.90;;
69172;SDS011;56280;49.662;8.408;2023-09-18T05:13:15;11.93;;;3.57;;
69172;SDS011;56280;49.662;8.408;2023-09-18T05:15:41;11.70;;;3.40;;
69172;SDS011;56280;49.662;8.408;2023-09-18T05:18:06;13.10;;;3.77;;
69172;SDS011;56280;49.662;8.408;2023-09-18T05:20:31;11.10;;;3.20;;
69172;SDS011;56280;49.662;8.408;2023-09-18T05:22:57;10.83;;;3.33;;
69172;SDS011;56280;49.662;8.408;2023-09-18T05:25:24;10.18;;;3.33;;
69172;SDS011;56280;49.662;8.408;2023-09-18T05:27:51;14.90;;;4.22;;
69172;SDS011;56280;49.662;8.408;2023-09-18T05:30:24;22.30;;;5.30;;
69172;SDS011;56280;49.662;8.408;2023-09-18T05:32:56;12.43;;;3.63;;
69172;SDS011;56280;49.662;8.408;2023-09-18T05:35:22;14.18;;;4.00;;
69172;SDS011;56280;49.662;8.408;2023-09-18T05:37:48;14.77;;;4.13;;
69172;SDS011;56280;49.662;8.408;2023-09-18T05:40:14;14.47;;;3.67;;
69172;SDS011;56280;49.662;8.408;2023-09-18T05:42:43;10.03;;;3.10;;
69172;SDS011;56280;49.662;8.408;2023-09-18T05:45:09;10.75;;;3.20;;
69172;SDS011;56280;49.662;8.408;2023-09-18T05:47:38;12.55;;;3.10;;
69172;SDS011;56280;49.662;8.408;2023-09-18T05:50:07;11.57;;;2.93;;
69172;SDS011;56280;49.662;8.408;2023-09-18T05:52:34;9.45;;;3.20;;
69172;SDS011;56280;49.662;8.408;2023-09-18T05:55:00;9.50;;;3.20;;
69172;SDS011;56280;49.662;8.408;2023-09-18T05:57:26;10.70;;;3.03;;
69172;SDS011;56280;49.662;8.408;2023-09-18T05:59:53;14.30;;;3.30;;
69172;SDS011;56280;49.662;8.408;2023-09-18T06:02:20;10.23;;;3.05;;
69172;SDS011;56280;49.662;8.408;2023-09-18T06:04:45;10.27;;;3.27;;
69172;SDS011;56280;49.662;8.408;2023-09-18T06:07:11;9.83;;;3.20;;
69172;SDS011;56280;49.662;8.408;2023-09-18T06:09:38;11.80;;;3.55;;
69172;SDS011;56280;49.662;8.408;2023-09-18T06:12:03;10.32;;;3.15;;
69172;SDS011;56280;49.662;8.408;2023-09-18T06:14:30;10.35;;;3.03;;
69172;SDS011;56280;49.662;8.408;2023-09-18T06:16:55;9.27;;;3.20;;
69172;SDS011;56280;49.662;8.408;2023-09-18T06:19:20;9.07;;;2.77;;
69172;SDS011;56280;49.662;8.408;2023-09-18T06:21:46;9.07;;;2.90;;
69172;SDS011;56280;49.662;8.408;2023-09-18T06:24:12;9.50;;;3.10;;
69172;SDS011;56280;49.662;8.408;2023-09-18T06:26:39;10.27;;;3.17;;
69172;SDS011;56280;49.662;8.408;2023-09-18T06:29:05;12.70;;;3.00;;
69172;SDS011;56280;49.662;8.408;2023-09-18T06:31:30;9.60;;;3.23;;
69172;SDS011;56280;49.662;8.408;2023-09-18T06:33:58;10.30;;;2.90;;
69172;SDS011;56280;49.662;8.408;2023-09-18T06:36:23;10.77;;;3.25;;
69172;SDS011;56280;49.662;8.408;2023-09-18T06:38:49;10.00;;;3.17;;
69172;SDS011;56280;49.662;8.408;2023-09-18T06:41:14;9.20;;;3.00;;
69172;SDS011;56280;49.662;8.408;2023-09-18T06:43:39;9.73;;;3.13;;
69172;SDS011;56280;49.662;8.408;2023-09-18T06:46:06;11.67;;;3.10;;
69172;SDS011;56280;49.662;8.408;2023-09-18T06:48:32;11.15;;;3.03;;
69172;SDS011;56280;49.662;8.408;2023-09-18T06:51:00;11.73;;;3.00;;
69172;SDS011;56280;49.662;8.408;2023-09-18T06:53:26;10.27;;;3.27;;
69172;SDS011;56280;49.662;8.408;2023-09-18T06:55:52;8.32;;;3.15;;
69172;SDS011;56280;49.662;8.408;2023-09-18T06:58:18;9.32;;;3.00;;
69172;SDS011;56280;49.662;8.408;2023-09-18T07:00:44;22.52;;;5.18;;
69172;SDS011;56280;49.662;8.408;2023-09-18T07:03:09;11.27;;;3.40;;
69172;SDS011;56280;49.662;8.408;2023-09-18T07:05:34;8.30;;;2.90;;
69172;SDS011;56280;49.662;8.408;2023-09-18T07:08:00;10.63;;;3.40;;
69172;SDS011;56280;49.662;8.408;2023-09-18T07:10:25;9.90;;;3.10;;
69172;SDS011;56280;49.662;8.408;2023-09-18T07:12:51;12.80;;;3.30;;
69172;SDS011;56280;49.662;8.408;2023-09-18T07:15:16;10.13;;;3.20;;
69172;SDS011;56280;49.662;8.408;2023-09-18T07:17:42;10.57;;;3.23;;
69172;SDS011;56280;49.662;8.408;2023-09-18T07:20:07;10.83;;;3.13;;
69172;SDS011;56280;49.662;8.408;2023-09-18T07:22:39;12.03;;;3.00;;
69172;SDS011;56280;49.662;8.408;2023-09-18T07:25:06;10.23;;;3.33;;
69172;SDS011;56280;49.662;8.408;2023-09-18T07:27:32;9.82;;;2.95;;
69172;SDS011;56280;49.662;8.408;2023-09-18T07:29:57;10.20;;;3.10;;
69172;SDS011;56280;49.662;8.408;2023-09-18T07:32:22;10.43;;;3.10;;
69172;SDS011;56280;49.662;8.408;2023-09-18T07:34:49;10.70;;;3.30;;
69172;SDS011;56280;49.662;8.408;2023-09-18T07:37:14;11.43;;;2.90;;
69172;SDS011;56280;49.662;8.408;2023-09-18T07:39:45;10.52;;;2.80;;
69172;SDS011;56280;49.662;8.408;2023-09-18T07:42:11;9.27;;;3.03;;
69172;SDS011;56280;49.662;8.408;2023-09-18T07:44:36;10.40;;;2.97;;
69172;SDS011;56280;49.662;8.408;2023-09-18T07:47:01;10.00;;;2.90;;
69172;SDS011;56280;49.662;8.408;2023-09-18T07:49:27;11.63;;;3.10;;
69172;SDS011;56280;49.662;8.408;2023-09-18T07:51:52;8.43;;;2.80;;
69172;SDS011;56280;49.662;8.408;2023-09-18T07:54:17;8.07;;;2.27;;
69172;SDS011;56280;49.662;8.408;2023-09-18T07:56:43;7.93;;;2.40;;
69172;SDS011;56280;49.662;8.408;2023-09-18T07:59:08;9.33;;;2.43;;
69172;SDS011;56280;49.662;8.408;2023-09-18T08:01:34;7.05;;;2.17;;
69172;SDS011;56280;49.662;8.408;2023-09-18T08:03:59;10.23;;;2.40;;
69172;SDS011;56280;49.662;8.408;2023-09-18T08:06:25;7.90;;;2.30;;
69172;SDS011;56280;49.662;8.408;2023-09-18T08:08:51;6.63;;;2.23;;
69172;SDS011;56280;49.662;8.408;2023-09-18T08:11:16;6.97;;;2.28;;
69172;SDS011;56280;49.662;8.408;2023-09-18T08:13:42;10.23;;;2.70;;
69172;SDS011;56280;49.662;8.408;2023-09-18T08:16:07;8.05;;;2.40;;
69172;SDS011;56280;49.662;8.408;2023-09-18T08:18:33;5.35;;;2.03;;
69172;SDS011;56280;49.662;8.408;2023-09-18T08:20:59;6.03;;;2.40;;
69172;SDS011;56280;49.662;8.408;2023-09-18T08:23:25;7.30;;;2.37;;
69172;SDS011;56280;49.662;8.408;2023-09-18T08:25:50;8.23;;;1.90;;
69172;SDS011;56280;49.662;8.408;2023-09-18T08:28:22;8.38;;;2.15;;
69172;SDS011;56280;49.662;8.408;2023-09-18T08:30:48;7.73;;;2.27;;
69172;SDS011;56280;49.662;8.408;2023-09-18T08:33:14;5.85;;;1.70;;
69172;SDS011;56280;49.662;8.408;2023-09-18T08:35:40;6.67;;;1.80;;
69172;SDS011;56280;49.662;8.408;2023-09-18T08:38:05;6.60;;;1.90;;
69172;SDS011;56280;49.662;8.408;2023-09-18T08:40:32;6.17;;;1.70;;
69172;SDS011;56280;49.662;8.408;2023-09-18T08:42:59;6.40;;;1.63;;
69172;SDS011;56280;49.662;8.408;2023-09-18T08:46:08;5.03;;;1.67;;
69172;SDS011;56280;49.662;8.408;2023-09-18T08:48:19;5.43;;;1.50;;
69172;SDS011;56280;49.662;8.408;2023-09-18T08:50:48;6.03;;;1.83;;
69172;SDS011;56280;49.662;8.408;2023-09-18T08:53:14;5.38;;;1.67;;
69172;SDS011;56280;49.662;8.408;2023-09-18T08:55:39;6.50;;;2.00;;
69172;SDS011;56280;49.662;8.408;2023-09-18T08:58:06;6.53;;;1.75;;
69172;SDS011;56280;49.662;8.408;2023-09-18T09:00:32;5.45;;;1.70;;
69172;SDS011;56280;49.662;8.408;2023-09-18T09:03:00;6.68;;;1.60;;
69172;SDS011;56280;49.662;8.408;2023-09-18T09:05:26;6.85;;;1.63;;
69172;SDS011;56280;49.662;8.408;2023-09-18T09:07:51;6.53;;;1.55;;
69172;SDS011;56280;49.662;8.408;2023-09-18T09:10:17;6.20;;;1.50;;
69172;SDS011;56280;49.662;8.408;2023-09-18T09:12:46;8.07;;;1.60;;
69172;SDS011;56280;49.662;8.408;2023-09-18T09:15:12;5.53;;;1.30;;
69172;SDS011;56280;49.662;8.408;2023-09-18T09:17:38;7.30;;;1.73;;
69172;SDS011;56280;49.662;8.408;2023-09-18T09:20:13;8.17;;;1.63;;
69172;SDS011;56280;49.662;8.408;2023-09-18T09:22:40;5.57;;;1.40;;
69172;SDS011;56280;49.662;8.408;2023-09-18T09:25:22;5.95;;;1.45;;
69172;SDS011;56280;49.662;8.408;2023-09-18T09:27:51;8.10;;;1.90;;
69172;SDS011;56280;49.662;8.408;2023-09-18T09:30:20;7.28;;;1.63;;
69172;SDS011;56280;49.662;8.408;2023-09-18T09:32:47;5.70;;;1.70;;
69172;SDS011;56280;49.662;8.408;2023-09-18T09:35:27;5.63;;;1.80;;
69172;SDS011;56280;49.662;8.408;2023-09-18T09:38:01;7.03;;;1.83;;
69172;SDS011;56280;49.662;8.408;2023-09-18T09:40:32;6.95;;;1.73;;
69172;SDS011;56280;49.662;8.408;2023-09-18T09:42:57;5.60;;;1.90;;
69172;SDS011;56280;49.662;8.408;2023-09-18T09:45:27;6.18;;;1.60;;
69172;SDS011;56280;49.662;8.408;2023-09-18T09:47:55;6.15;;;1.77;;
69172;SDS011;56280;49.662;8.408;2023-09-18T09:50:21;4.38;;;1.50;;
69172;SDS011;56280;49.662;8.408;2023-09-18T09:52:47;7.03;;;1.70;;
69172;SDS011;56280;49.662;8.408;2023-09-18T09:57:54;5.57;;;1.52;;
69172;SDS011;56280;49.662;8.408;2023-09-18T10:00:34;5.47;;;1.40;;
69172;SDS011;56280;49.662;8.408;2023-09-18T10:03:08;5.72;;;1.55;;
69172;SDS011;56280;49.662;8.408;2023-09-18T10:05:35;5.10;;;1.40;;
69172;SDS011;56280;49.662;8.408;2023-09-18T10:08:05;5.30;;;1.33;;
69172;SDS011;56280;49.662;8.408;2023-09-18T10:10:33;5.53;;;1.60;;
69172;SDS011;56280;49.662;8.408;2023-09-18T10:13:12;5.65;;;1.75;;
69172;SDS011;56280;49.662;8.408;2023-09-18T10:15:57;5.75;;;1.60;;
69172;SDS011;56280;49.662;8.408;2023-09-18T10:21:03;4.57;;;1.60;;
69172;SDS011;56280;49.662;8.408;2023-09-18T10:23:46;7.30;;;1.53;;
69172;SDS011;56280;49.662;8.408;2023-09-18T10:26:23;5.53;;;1.40;;
69172;SDS011;56280;49.662;8.408;2023-09-18T10:28:56;5.70;;;1.50;;
69172;SDS011;56280;49.662;8.408;2023-09-18T10:31:27;6.80;;;1.20;;
69172;SDS011;56280;49.662;8.408;2023-09-18T10:33:54;5.63;;;1.40;;
69172;SDS011;56280;49.662;8.408;2023-09-18T10:36:24;5.65;;;1.45;;
69172;SDS011;56280;49.662;8.408;2023-09-18T10:38:50;5.40;;;1.63;;
69172;SDS011;56280;49.662;8.408;2023-09-18T10:41:17;5.47;;;1.42;;
69172;SDS011;56280;49.662;8.408;2023-09-18T10:43:45;6.78;;;1.80;;
69172;SDS011;56280;49.662;8.408;2023-09-18T10:46:12;4.00;;;1.38;;
69172;SDS011;56280;49.662;8.408;2023-09-18T10:48:38;8.57;;;1.50;;
69172;SDS011;56280;49.662;8.408;2023-09-18T10:51:07;4.70;;;1.67;;
69172;SDS011;56280;49.662;8.408;2023-09-18T10:53:33;7.63;;;1.60;;
69172;SDS011;56280;49.662;8.408;2023-09-18T10:56:00;6.18;;;1.70;;
69172;SDS011;56280;49.662;8.408;2023-09-18T10:58:32;5.80;;;1.30;;
69172;SDS011;56280;49.662;8.408;2023-09-18T11:01:00;5.10;;;1.42;;
69172;SDS011;56280;49.662;8.408;2023-09-18T11:03:27;7.70;;;1.90;;
69172;SDS011;56280;49.662;8.408;2023-09-18T11:06:03;6.50;;;1.50;;
69172;SDS011;56280;49.662;8.408;2023-09-18T11:08:32;6.32;;;1.30;;
69172;SDS011;56280;49.662;8.408;2023-09-18T11:11:00;5.63;;;1.40;;
69172;SDS011;56280;49.662;8.408;2023-09-18T11:13:46;4.47;;;1.48;;
69172;SDS011;56280;49.662;8.408;2023-09-18T11:16:18;5.35;;;1.60;;
69172;SDS011;56280;49.662;8.408;2023-09-18T11:18:53;6.40;;;1.60;;
69172;SDS011;56280;49.662;8.408;2023-09-18T11:21:33;4.43;;;1.20;;
69172;SDS011;56280;49.662;8.408;2023-09-18T11:26:29;5.88;;;1.50;;
69172;SDS011;56280;49.662;8.408;2023-09-18T11:28:56;5.63;;;1.48;;
69172;SDS011;56280;49.662;8.408;2023-09-18T11:36:48;6.72;;;1.40;;
69172;SDS011;56280;49.662;8.408;2023-09-18T11:39:32;5.95;;;1.40;;
69172;SDS011;56280;49.662;8.408;2023-09-18T11:42:09;5.47;;;1.40;;
69172;SDS011;56280;49.662;8.408;2023-09-18T11:44:42;5.28;;;1.33;;
69172;SDS011;56280;49.662;8.408;2023-09-18T11:47:12;5.68;;;1.50;;
69172;SDS011;56280;49.662;8.408;2023-09-18T11:49:56;4.55;;;1.58;;
69172;SDS011;56280;49.662;8.408;2023-09-18T11:52:29;6.10;;;1.45;;
69172;SDS011;56280;49.662;8.408;2023-09-18T11:54:57;6.53;;;1.50;;
69172;SDS011;56280;49.662;8.408;2023-09-18T11:57:23;6.15;;;1.70;;
69172;SDS011;56280;49.662;8.408;2023-09-18T11:59:50;5.13;;;1.40;;
69172;SDS011;56280;49.662;8.408;2023-09-18T12:02:29;6.25;;;1.40;;
69172;SDS011;56280;49.662;8.408;2023-09-18T12:05:16;4.57;;;1.35;;
69172;SDS011;56280;49.662;8.408;2023-09-18T12:07:44;5.65;;;1.60;;
69172;SDS011;56280;49.662;8.408;2023-09-18T12:10:11;5.00;;;1.40;;
69172;SDS011;56280;49.662;8.408;2023-09-18T12:12:37;6.60;;;1.40;;
69172;SDS011;56280;49.662;8.408;2023-09-18T12:15:03;4.38;;;1.40;;
69172;SDS011;56280;49.662;8.408;2023-09-18T12:17:29;4.77;;;1.53;;
69172;SDS011;56280;49.662;8.408;2023-09-18T12:19:54;5.47;;;1.55;;
69172;SDS011;56280;49.662;8.408;2023-09-18T12:22:24;5.47;;;1.45;;
69172;SDS011;56280;49.662;8.408;2023-09-18T12:24:53;7.25;;;1.55;;
69172;SDS011;56280;49.662;8.408;2023-09-18T12:27:18;5.03;;;1.33;;
69172;SDS011;56280;49.662;8.408;2023-09-18T12:29:44;7.18;;;1.95;;
69172;SDS011;56280;49.662;8.408;2023-09-18T12:32:09;7.38;;;1.70;;
69172;SDS011;56280;49.662;8.408;2023-09-18T12:34:40;4.75;;;1.40;;
69172;SDS011;56280;49.662;8.408;2023-09-18T12:37:06;5.68;;;1.67;;
69172;SDS011;56280;49.662;8.408;2023-09-18T12:39:34;5.65;;;1.70;;
69172;SDS011;56280;49.662;8.408;2023-09-18T12:42:00;5.63;;;1.50;;
69172;SDS011;56280;49.662;8.408;2023-09-18T12:44:25;4.93;;;1.57;;
69172;SDS011;56280;49.662;8.408;2023-09-18T12:46:51;5.80;;;1.60;;
69172;SDS011;56280;49.662;8.408;2023-09-18T12:49:20;5.30;;;1.52;;
69172;SDS011;56280;49.662;8.408;2023-09-18T12:54:35;5.43;;;1.50;;
69172;SDS011;56280;49.662;8.408;2023-09-18T12:57:06;6.05;;;1.40;;
69172;SDS011;56280;49.662;8.408;2023-09-18T12:59:33;6.03;;;1.60;;
69172;SDS011;56280;49.662;8.408;2023-09-18T13:02:01;4.97;;;1.60;;
69172;SDS011;56280;49.662;8.408;2023-09-18T13:04:29;5.97;;;1.73;;
69172;SDS011;56280;49.662;8.408;2023-09-18T13:07:07;5.05;;;1.60;;
69172;SDS011;56280;49.662;8.408;2023-09-18T13:09:34;6.50;;;1.50;;
69172;SDS011;56280;49.662;8.408;2023-09-18T13:12:00;5.38;;;1.58;;
69172;SDS011;56280;49.662;8.408;2023-09-18T13:14:26;4.17;;;1.40;;
69172;SDS011;56280;49.662;8.408;2023-09-18T13:16:52;5.55;;;1.30;;
69172;SDS011;56280;49.662;8.408;2023-09-18T13:19:17;5.93;;;1.40;;
69172;SDS011;56280;49.662;8.408;2023-09-18T13:21:46;5.37;;;1.63;;
69172;SDS011;56280;49.662;8.408;2023-09-18T13:24:25;5.18;;;1.45;;
69172;SDS011;56280;49.662;8.408;2023-09-18T13:26:52;5.00;;;1.50;;
69172;SDS011;56280;49.662;8.408;2023-09-18T13:29:18;4.47;;;1.30;;
69172;SDS011;56280;49.662;8.408;2023-09-18T13:31:43;5.63;;;1.50;;
69172;SDS011;56280;49.662;8.408;2023-09-18T13:34:09;4.90;;;1.50;;
69172;SDS011;56280;49.662;8.408;2023-09-18T13:36:34;6.20;;;1.30;;
69172;SDS011;56280;49.662;8.408;2023-09-18T13:38:59;5.87;;;1.60;;
69172;SDS011;56280;49.662;8.408;2023-09-18T13:41:25;5.50;;;1.50;;
69172;SDS011;56280;49.662;8.408;2023-09-18T13:43:51;5.83;;;1.50;;
69172;SDS011;56280;49.662;8.408;2023-09-18T13:46:20;6.90;;;1.50;;
69172;SDS011;56280;49.662;8.408;2023-09-18T13:51:54;4.50;;;1.40;;
69172;SDS011;56280;49.662;8.408;2023-09-18T13:54:26;6.90;;;1.80;;
69172;SDS011;56280;49.662;8.408;2023-09-18T13:57:08;5.35;;;1.60;;
69172;SDS011;56280;49.662;8.408;2023-09-18T13:59:33;4.60;;;1.73;;
69172;SDS011;56280;49.662;8.408;2023-09-18T14:02:02;5.17;;;1.50;;
69172;SDS011;56280;49.662;8.408;2023-09-18T14:04:54;4.85;;;1.50;;
69172;SDS011;56280;49.662;8.408;2023-09-18T14:07:22;5.53;;;1.83;;
69172;SDS011;56280;49.662;8.408;2023-09-18T14:09:48;5.05;;;1.65;;
69172;SDS011;56280;49.662;8.408;2023-09-18T14:12:13;4.47;;;1.30;;
69172;SDS011;56280;49.662;8.408;2023-09-18T14:14:41;5.00;;;1.60;;
69172;SDS011;56280;49.662;8.408;2023-09-18T14:17:12;6.03;;;1.60;;
69172;SDS011;56280;49.662;8.408;2023-09-18T14:19:37;5.18;;;1.58;;
69172;SDS011;56280;49.662;8.408;2023-09-18T14:22:03;5.33;;;1.93;;
69172;SDS011;56280;49.662;8.408;2023-09-18T14:24:30;5.25;;;1.70;;
69172;SDS011;56280;49.662;8.408;2023-09-18T14:26:56;5.18;;;1.55;;
69172;SDS011;56280;49.662;8.408;2023-09-18T14:29:22;5.30;;;1.40;;
69172;SDS011;56280;49.662;8.408;2023-09-18T14:31:47;5.03;;;1.50;;
69172;SDS011;56280;49.662;8.408;2023-09-18T14:34:13;5.57;;;1.50;;
69172;SDS011;56280;49.662;8.408;2023-09-18T14:36:39;4.25;;;1.40;;
69172;SDS011;56280;49.662;8.408;2023-09-18T14:39:05;3.87;;;1.37;;
69172;SDS011;56280;49.662;8.408;2023-09-18T14:41:35;5.85;;;1.65;;
69172;SDS011;56280;49.662;8.408;2023-09-18T14:44:00;5.80;;;1.60;;
69172;SDS011;56280;49.662;8.408;2023-09-18T14:46:26;5.13;;;1.40;;
69172;SDS011;56280;49.662;8.408;2023-09-18T14:48:51;5.33;;;1.37;;
69172;SDS011;56280;49.662;8.408;2023-09-18T14:51:16;5.80;;;1.57;;
69172;SDS011;56280;49.662;8.408;2023-09-18T14:53:43;4.30;;;1.40;;
69172;SDS011;56280;49.662;8.408;2023-09-18T14:56:08;5.30;;;1.83;;
69172;SDS011;56280;49.662;8.408;2023-09-18T14:58:33;6.07;;;1.90;;
69172;SDS011;56280;49.662;8.408;2023-09-18T15:00:59;4.67;;;1.40;;
69172;SDS011;56280;49.662;8.408;2023-09-18T15:03:24;6.60;;;1.70;;